Time;durP1;ratioP1;P1;durP2;ratioP2;P2;SDS_P1;SDS_P2;PMS_P1;PMS_P2;Temp;Humidity;BMP_temperature;BMP_pressure;BME280_temperature;BME280_humidity;BME280_pressure;Samples;Min_cycle;Max_cycle;Signal;HPM_P1;HPM_P2
2023/12/13 00:01:49;;;;;;;;;;;19.00;61.80;;;;;;5060489;28;1551;-69
2023/12/13 00:04:15;;;;;;;;;;;19.00;61.90;;;;;;5058082;28;1622;-68
2023/12/13 00:06:40;;;;;;;;;;;19.00;61.80;;;;;;5058977;28;1868;-70
2023/12/13 00:09:08;;;;;;;;;;;19.00;61.90;;;;;;5059864;28;1375;-70
2023/12/13 00:11:34;;;;;;;;;;;19.00;61.90;;;;;;5092469;28;1205;-70
2023/12/13 00:13:59;;;;;;;;;;;19.00;62.00;;;;;;5092262;28;1914;-69
2023/12/13 00:16:25;;;;;;;;;;;19.00;62.00;;;;;;5059609;28;1340;-69
2023/12/13 00:18:51;;;;;;;;;;;18.90;61.90;;;;;;5043105;28;1386;-69
2023/12/13 00:21:17;;;;;;;;;;;18.90;62.00;;;;;;5062348;28;1544;-69
2023/12/13 00:23:43;;;;;;;;;;;19.00;62.00;;;;;;5058770;28;1332;-69
2023/12/13 00:26:18;;;;;;;;;;;18.90;62.00;;;;;;5090710;28;1546;-70
2023/12/13 00:28:43;;;;;;;;;;;18.90;62.00;;;;;;5089904;28;1343;-69
2023/12/13 00:31:10;;;;;;;;;;;18.90;62.00;;;;;;5094480;28;1543;-68
2023/12/13 00:33:35;;;;;;;;;;;18.90;62.10;;;;;;5056719;28;1981;-67
2023/12/13 00:36:01;;;;;;;;;;;18.90;62.00;;;;;;5057710;28;1348;-69
2023/12/13 00:38:26;;;;;;;;;;;18.90;62.10;;;;;;5057288;28;1382;-70
2023/12/13 00:40:52;;;;;;;;;;;18.90;62.10;;;;;;5060954;28;1337;-69
2023/12/13 00:43:17;;;;;;;;;;;18.90;62.10;;;;;;5059274;28;1540;-69
2023/12/13 00:45:43;;;;;;;;;;;18.90;62.10;;;;;;5060176;28;1300;-69
2023/12/13 00:48:08;;;;;;;;;;;18.90;62.10;;;;;;5056711;28;1531;-70
2023/12/13 00:50:34;;;;;;;;;;;18.90;62.10;;;;;;5062731;28;1494;-69
2023/12/13 00:52:59;;;;;;;;;;;18.90;62.20;;;;;;5063301;28;1969;-69
2023/12/13 00:55:25;;;;;;;;;;;18.90;62.20;;;;;;5054955;28;1266;-68
2023/12/13 00:57:51;;;;;;;;;;;18.90;62.20;;;;;;5057638;28;1468;-69
2023/12/13 01:00:17;;;;;;;;;;;18.90;62.20;;;;;;5060026;28;1251;-69
2023/12/13 01:02:42;;;;;;;;;;;18.90;62.20;;;;;;5058273;28;1346;-68
2023/12/13 01:05:08;;;;;;;;;;;18.90;62.20;;;;;;5059022;28;1517;-69
2023/12/13 01:07:33;;;;;;;;;;;18.90;62.20;;;;;;5061554;28;1233;-68
2023/12/13 01:09:58;;;;;;;;;;;18.90;62.30;;;;;;5055911;28;1256;-69
2023/12/13 01:12:24;;;;;;;;;;;18.90;62.30;;;;;;5056430;28;1910;-68
2023/12/13 01:14:50;;;;;;;;;;;18.90;62.30;;;;;;5059796;28;1252;-69
2023/12/13 01:17:15;;;;;;;;;;;18.90;62.30;;;;;;5058531;28;1240;-70
2023/12/13 01:19:41;;;;;;;;;;;18.90;62.40;;;;;;5057639;28;1498;-69
2023/12/13 01:22:08;;;;;;;;;;;18.80;62.30;;;;;;5059935;28;1266;-68
2023/12/13 01:24:33;;;;;;;;;;;18.90;62.40;;;;;;5058927;28;1246;-69
2023/12/13 01:26:59;;;;;;;;;;;18.80;62.30;;;;;;5060198;28;1054;-69
2023/12/13 01:29:24;;;;;;;;;;;18.80;62.30;;;;;;5058888;28;1354;-70
2023/12/13 01:31:50;;;;;;;;;;;18.80;62.30;;;;;;5060708;28;1255;-69
2023/12/13 01:34:15;;;;;;;;;;;18.80;62.30;;;;;;5057071;28;1902;-70
2023/12/13 01:36:44;;;;;;;;;;;18.80;62.30;;;;;;5057898;28;1390;-68
2023/12/13 01:39:12;;;;;;;;;;;18.80;62.30;;;;;;5090061;28;1363;-69
2023/12/13 01:41:37;;;;;;;;;;;18.80;62.40;;;;;;5059982;28;1355;-69
2023/12/13 01:44:03;;;;;;;;;;;18.80;62.40;;;;;;5059041;28;1564;-69
2023/12/13 01:46:30;;;;;;;;;;;18.80;62.40;;;;;;5057773;28;1334;-69
2023/12/13 01:48:56;;;;;;;;;;;18.80;62.40;;;;;;5055400;28;1658;-69
2023/12/13 01:51:21;;;;;;;;;;;18.80;62.40;;;;;;5058610;28;1338;-70
2023/12/13 01:53:46;;;;;;;;;;;18.80;62.40;;;;;;5090245;28;1967;-69
2023/12/13 01:56:12;;;;;;;;;;;18.80;62.40;;;;;;5058415;28;1265;-69
2023/12/13 01:58:38;;;;;;;;;;;18.80;62.50;;;;;;5058667;28;1277;-68
2023/12/13 02:01:04;;;;;;;;;;;18.80;62.50;;;;;;5090679;28;1589;-69
2023/12/13 02:03:29;;;;;;;;;;;18.80;62.50;;;;;;5091539;28;1414;-69
2023/12/13 02:05:54;;;;;;;;;;;18.80;62.50;;;;;;5093744;28;1397;-70
2023/12/13 02:08:20;;;;;;;;;;;18.80;62.50;;;;;;5061119;28;1355;-70
2023/12/13 02:10:45;;;;;;;;;;;18.80;62.60;;;;;;5058793;28;1643;-70
2023/12/13 02:13:12;;;;;;;;;;;18.80;62.50;;;;;;5057771;28;1985;-69
2023/12/13 02:15:37;;;;;;;;;;;18.80;62.50;;;;;;5057064;28;1455;-70
2023/12/13 02:18:03;;;;;;;;;;;18.80;62.50;;;;;;5065144;28;1292;-69
2023/12/13 02:20:28;;;;;;;;;;;18.80;62.60;;;;;;5065462;28;1255;-69
2023/12/13 02:22:54;;;;;;;;;;;18.80;62.60;;;;;;5064864;28;1599;-69
2023/12/13 02:25:21;;;;;;;;;;;18.70;62.50;;;;;;5069008;28;1215;-70
2023/12/13 02:27:47;;;;;;;;;;;18.70;62.50;;;;;;5062600;28;1449;-69
2023/12/13 02:30:12;;;;;;;;;;;18.70;62.50;;;;;;5062364;28;1316;-69
2023/12/13 02:32:38;;;;;;;;;;;18.70;62.50;;;;;;5064382;28;2010;-70
2023/12/13 02:35:04;;;;;;;;;;;18.70;62.60;;;;;;5064917;28;1419;-69
2023/12/13 02:37:30;;;;;;;;;;;18.70;62.60;;;;;;5096192;28;1239;-69
2023/12/13 02:39:58;;;;;;;;;;;18.70;62.60;;;;;;5062332;28;1357;-69
2023/12/13 02:42:24;;;;;;;;;;;18.70;62.60;;;;;;5061837;28;1460;-70
2023/12/13 02:44:50;;;;;;;;;;;18.70;62.70;;;;;;5065115;28;1389;-67
2023/12/13 02:47:16;;;;;;;;;;;18.70;62.70;;;;;;5064500;28;1247;-67
2023/12/13 02:49:41;;;;;;;;;;;18.70;62.60;;;;;;5064789;28;1345;-68
2023/12/13 02:52:06;;;;;;;;;;;18.70;62.70;;;;;;5063975;28;1234;-67
2023/12/13 02:54:32;;;;;;;;;;;18.70;62.70;;;;;;5063088;28;1973;-67
2023/12/13 02:56:57;;;;;;;;;;;18.70;62.70;;;;;;5064843;28;1182;-67
2023/12/13 02:59:23;;;;;;;;;;;18.70;62.70;;;;;;5060400;28;1357;-68
2023/12/13 03:01:48;;;;;;;;;;;18.70;62.70;;;;;;5063379;28;1717;-67
2023/12/13 03:04:14;;;;;;;;;;;18.70;62.70;;;;;;5065070;28;1275;-67
2023/12/13 03:06:39;;;;;;;;;;;18.70;62.70;;;;;;5066905;28;1369;-67
2023/12/13 03:09:05;;;;;;;;;;;18.70;62.70;;;;;;5059331;28;1330;-67
2023/12/13 03:11:30;;;;;;;;;;;18.70;62.70;;;;;;5062736;28;1357;-67
2023/12/13 03:13:56;;;;;;;;;;;18.70;62.80;;;;;;5067246;28;1910;-68
2023/12/13 03:16:21;;;;;;;;;;;18.70;62.80;;;;;;5065507;28;1291;-68
2023/12/13 03:18:47;;;;;;;;;;;18.70;62.80;;;;;;5065431;28;1557;-67
2023/12/13 03:21:12;;;;;;;;;;;18.70;62.80;;;;;;5064154;28;1306;-67
2023/12/13 03:23:37;;;;;;;;;;;18.70;62.80;;;;;;5096748;28;1458;-67
2023/12/13 03:26:03;;;;;;;;;;;18.70;62.80;;;;;;5062003;28;1493;-67
2023/12/13 03:28:29;;;;;;;;;;;18.70;62.80;;;;;;5063065;28;1520;-68
2023/12/13 03:30:54;;;;;;;;;;;18.70;62.80;;;;;;5060203;28;1566;-68
2023/12/13 03:33:20;;;;;;;;;;;18.70;62.80;;;;;;5061026;28;1969;-68
2023/12/13 03:35:45;;;;;;;;;;;18.70;62.90;;;;;;5058065;28;1474;-67
2023/12/13 03:38:11;;;;;;;;;;;18.70;62.80;;;;;;5061948;28;1434;-67
2023/12/13 03:40:36;;;;;;;;;;;18.60;62.80;;;;;;5061874;28;1383;-69
2023/12/13 03:43:02;;;;;;;;;;;18.60;62.80;;;;;;5064115;28;1166;-66
2023/12/13 03:45:27;;;;;;;;;;;18.70;62.90;;;;;;5062252;28;1129;-67
2023/12/13 03:47:53;;;;;;;;;;;18.60;62.80;;;;;;5060236;28;1381;-68
2023/12/13 03:50:18;;;;;;;;;;;18.60;62.90;;;;;;5060909;28;1539;-67
2023/12/13 03:52:44;;;;;;;;;;;18.60;62.80;;;;;;5062561;28;1906;-67
2023/12/13 03:55:09;;;;;;;;;;;18.60;62.80;;;;;;5063632;28;1421;-70
2023/12/13 03:57:35;;;;;;;;;;;18.60;62.90;;;;;;5061448;28;1442;-69
2023/12/13 04:00:00;;;;;;;;;;;18.60;62.90;;;;;;5059463;28;1268;-70
2023/12/13 04:02:25;;;;;;;;;;;18.60;62.90;;;;;;5058169;28;1215;-67
2023/12/13 04:04:51;;;;;;;;;;;18.60;62.90;;;;;;5062400;28;1518;-69
2023/12/13 04:07:16;;;;;;;;;;;18.60;62.90;;;;;;5059796;28;1165;-70
2023/12/13 04:09:42;;;;;;;;;;;18.60;62.90;;;;;;5092241;28;1288;-69
2023/12/13 04:12:07;;;;;;;;;;;18.60;62.90;;;;;;5060346;28;946;-69
2023/12/13 04:14:33;;;;;;;;;;;18.60;62.90;;;;;;5059655;28;1910;-70
2023/12/13 04:16:58;;;;;;;;;;;18.60;62.90;;;;;;5060727;28;1347;-70
2023/12/13 04:19:24;;;;;;;;;;;18.60;63.00;;;;;;5059559;28;1560;-69
2023/12/13 04:21:49;;;;;;;;;;;18.60;63.00;;;;;;5056636;28;1769;-70
2023/12/13 04:24:14;;;;;;;;;;;18.60;63.00;;;;;;5058373;28;1427;-70
2023/12/13 04:26:40;;;;;;;;;;;18.60;63.00;;;;;;5060960;28;1430;-69
2023/12/13 04:29:06;;;;;;;;;;;18.60;63.00;;;;;;5056323;28;1501;-68
2023/12/13 04:31:31;;;;;;;;;;;18.60;63.00;;;;;;5060464;28;1499;-70
2023/12/13 04:33:57;;;;;;;;;;;18.60;63.00;;;;;;5061501;28;1906;-69
2023/12/13 04:36:22;;;;;;;;;;;18.60;63.00;;;;;;5061406;28;1378;-68
2023/12/13 04:38:47;;;;;;;;;;;18.60;63.00;;;;;;5058392;28;1406;-67
2023/12/13 04:41:13;;;;;;;;;;;18.60;63.00;;;;;;5058948;28;1356;-67
2023/12/13 04:43:39;;;;;;;;;;;18.60;63.00;;;;;;5060893;28;1465;-67
2023/12/13 04:46:04;;;;;;;;;;;18.60;63.00;;;;;;5060497;28;1328;-68
2023/12/13 04:48:30;;;;;;;;;;;18.60;63.00;;;;;;5059659;28;1363;-67
2023/12/13 04:50:55;;;;;;;;;;;18.60;63.00;;;;;;5059303;28;1599;-67
2023/12/13 04:53:20;;;;;;;;;;;18.60;63.00;;;;;;5060179;28;1968;-68
2023/12/13 04:55:46;;;;;;;;;;;18.60;63.00;;;;;;5059535;28;1635;-66
2023/12/13 04:58:11;;;;;;;;;;;18.60;63.10;;;;;;5060946;28;1375;-68
2023/12/13 05:00:37;;;;;;;;;;;18.60;63.10;;;;;;5063803;28;1141;-67
2023/12/13 05:03:02;;;;;;;;;;;18.60;63.00;;;;;;5057799;28;1330;-66
2023/12/13 05:05:28;;;;;;;;;;;18.60;63.10;;;;;;5058324;28;1266;-66
2023/12/13 05:07:53;;;;;;;;;;;18.60;63.10;;;;;;5060417;28;1336;-66
2023/12/13 05:10:19;;;;;;;;;;;18.60;63.00;;;;;;5055913;28;1521;-69
2023/12/13 05:12:44;;;;;;;;;;;18.60;62.90;;;;;;5061569;28;1910;-67
2023/12/13 05:15:10;;;;;;;;;;;18.70;63.00;;;;;;5060404;28;1318;-67
2023/12/13 05:17:35;;;;;;;;;;;18.80;62.90;;;;;;5059222;28;1523;-67
2023/12/13 05:20:01;;;;;;;;;;;18.90;62.80;;;;;;5058625;28;1427;-66
2023/12/13 05:22:26;;;;;;;;;;;19.00;62.60;;;;;;5061555;28;1293;-68
2023/12/13 05:24:52;;;;;;;;;;;19.10;62.30;;;;;;5058974;28;1275;-69
2023/12/13 05:27:17;;;;;;;;;;;19.30;62.00;;;;;;5060903;28;1576;-68
2023/12/13 05:29:43;;;;;;;;;;;19.40;61.60;;;;;;5057993;28;1300;-69
2023/12/13 05:32:08;;;;;;;;;;;19.50;61.20;;;;;;5055752;28;1265;-69
2023/12/13 05:34:34;;;;;;;;;;;19.60;60.90;;;;;;5059102;28;1889;-69
2023/12/13 05:37:00;;;;;;;;;;;19.80;60.50;;;;;;5056633;28;1277;-70
2023/12/13 05:39:25;;;;;;;;;;;19.90;60.20;;;;;;5060149;28;1414;-70
2023/12/13 05:41:51;;;;;;;;;;;20.00;59.90;;;;;;5060006;28;1421;-69
2023/12/13 05:44:17;;;;;;;;;;;20.20;59.70;;;;;;5059660;28;1401;-70
2023/12/13 05:46:42;;;;;;;;;;;20.20;59.40;;;;;;5060858;28;1556;-67
2023/12/13 05:49:08;;;;;;;;;;;20.30;59.20;;;;;;5058215;28;1532;-70
2023/12/13 05:51:33;;;;;;;;;;;20.40;59.00;;;;;;5065836;28;1560;-69
2023/12/13 05:53:59;;;;;;;;;;;20.50;58.80;;;;;;5058013;28;1965;-69
2023/12/13 05:56:24;;;;;;;;;;;20.60;58.60;;;;;;5059456;28;1022;-68
2023/12/13 05:58:49;;;;;;;;;;;20.60;58.40;;;;;;5058033;28;1518;-70
2023/12/13 06:01:15;;;;;;;;;;;20.70;58.30;;;;;;5058739;28;1360;-66
2023/12/13 06:03:40;;;;;;;;;;;20.80;58.20;;;;;;5057162;28;1435;-67
2023/12/13 06:06:06;;;;;;;;;;;20.80;58.00;;;;;;5059641;28;1582;-67
2023/12/13 06:08:32;;;;;;;;;;;20.90;57.90;;;;;;5054303;28;1490;-66
2023/12/13 06:10:58;;;;;;;;;;;20.90;57.80;;;;;;5056999;28;1066;-68
2023/12/13 06:13:24;;;;;;;;;;;20.90;57.70;;;;;;5058841;28;1910;-68
2023/12/13 06:15:49;;;;;;;;;;;21.00;57.60;;;;;;5074552;28;1512;-67
2023/12/13 06:18:15;;;;;;;;;;;21.00;57.60;;;;;;5056867;28;1527;-67
2023/12/13 06:20:40;;;;;;;;;;;21.10;57.60;;;;;;5089149;28;1657;-66
2023/12/13 06:23:06;;;;;;;;;;;21.10;57.50;;;;;;5088807;28;1569;-67
2023/12/13 06:25:32;;;;;;;;;;;21.10;57.40;;;;;;5056047;28;1345;-68
2023/12/13 06:27:57;;;;;;;;;;;21.10;57.40;;;;;;5055628;28;1487;-68
2023/12/13 06:30:23;;;;;;;;;;;21.20;57.50;;;;;;5056242;28;1218;-69
2023/12/13 06:32:49;;;;;;;;;;;21.20;57.40;;;;;;5058975;28;1910;-67
2023/12/13 06:35:14;;;;;;;;;;;21.10;57.40;;;;;;5055975;28;1346;-67
2023/12/13 06:37:39;;;;;;;;;;;21.20;57.50;;;;;;5059029;28;1107;-67
2023/12/13 06:40:05;;;;;;;;;;;21.10;57.40;;;;;;5055335;28;1980;-68
2023/12/13 06:42:31;;;;;;;;;;;21.10;57.40;;;;;;5078479;28;1890;-68
2023/12/13 06:44:56;;;;;;;;;;;21.10;57.40;;;;;;5054840;28;1252;-67
2023/12/13 06:47:22;;;;;;;;;;;21.10;57.50;;;;;;5056847;28;1171;-69
2023/12/13 06:49:47;;;;;;;;;;;21.10;57.50;;;;;;5055524;28;1373;-68
2023/12/13 06:52:13;;;;;;;;;;;21.10;57.50;;;;;;5056295;28;1605;-69
2023/12/13 06:54:38;;;;;;;;;;;21.10;57.60;;;;;;5058157;28;1902;-68
2023/12/13 06:57:04;;;;;;;;;;;21.10;57.60;;;;;;5057607;28;1362;-69
2023/12/13 06:59:29;;;;;;;;;;;21.10;57.60;;;;;;5057157;28;1467;-69
2023/12/13 07:01:55;;;;;;;;;;;21.00;57.60;;;;;;5059901;28;1212;-69
2023/12/13 07:04:20;;;;;;;;;;;21.00;57.60;;;;;;5056716;28;1390;-68
2023/12/13 07:06:46;;;;;;;;;;;21.00;57.70;;;;;;5061487;28;1133;-69
2023/12/13 07:09:18;;;;;;;;;;;21.00;57.80;;;;;;5058069;28;1377;-68
2023/12/13 07:11:44;;;;;;;;;;;20.90;57.80;;;;;;5061639;28;1201;-68
2023/12/13 07:14:09;;;;;;;;;;;20.90;57.80;;;;;;5060074;28;2001;-68
2023/12/13 07:16:35;;;;;;;;;;;20.90;57.90;;;;;;5060309;28;1028;-68
2023/12/13 07:19:00;;;;;;;;;;;20.90;57.90;;;;;;5059519;28;1370;-67
2023/12/13 07:21:26;;;;;;;;;;;20.90;58.00;;;;;;5062732;28;1366;-67
2023/12/13 07:23:51;;;;;;;;;;;20.80;58.00;;;;;;5063078;28;1381;-67
2023/12/13 07:26:17;;;;;;;;;;;20.80;58.10;;;;;;5060158;28;1163;-67
2023/12/13 07:28:43;;;;;;;;;;;20.80;58.10;;;;;;5064623;28;1383;-67
2023/12/13 07:31:08;;;;;;;;;;;20.80;58.20;;;;;;5061611;28;1268;-67
2023/12/13 07:33:38;;;;;;;;;;;20.70;58.20;;;;;;5062565;28;1933;-67
2023/12/13 07:36:04;;;;;;;;;;;20.70;58.20;;;;;;5058317;28;1428;-67
2023/12/13 07:38:29;;;;;;;;;;;20.70;58.30;;;;;;5061134;28;1951;-69
2023/12/13 07:40:55;;;;;;;;;;;20.70;58.40;;;;;;5059983;28;1251;-67
2023/12/13 07:43:20;;;;;;;;;;;20.60;58.40;;;;;;5058172;28;945;-67
2023/12/13 07:45:51;;;;;;;;;;;20.60;58.50;;;;;;5061298;28;1131;-67
2023/12/13 07:48:18;;;;;;;;;;;20.60;58.50;;;;;;5088812;28;1390;-67
2023/12/13 07:50:44;;;;;;;;;;;20.60;58.60;;;;;;5059369;28;1310;-68
2023/12/13 07:53:09;;;;;;;;;;;20.60;58.60;;;;;;5061209;28;1991;-68
2023/12/13 07:55:35;;;;;;;;;;;20.60;58.70;;;;;;5058128;28;1803;-67
2023/12/13 07:58:00;;;;;;;;;;;20.50;58.70;;;;;;5057867;28;2282;-70
2023/12/13 08:00:26;;;;;;;;;;;20.50;58.80;;;;;;5062007;28;1521;-69
2023/12/13 08:02:51;;;;;;;;;;;20.50;59.40;;;;;;5062477;28;1373;-69
2023/12/13 08:05:19;;;;;;;;;;;20.50;59.80;;;;;;5092993;28;1537;-70
2023/12/13 08:07:46;;;;;;;;;;;20.50;60.10;;;;;;5061454;28;1951;-69
2023/12/13 08:10:12;;;;;;;;;;;20.50;60.10;;;;;;5060798;28;1468;-69
2023/12/13 08:12:37;;;;;;;;;;;20.50;60.40;;;;;;5091839;28;1911;-69
2023/12/13 08:15:05;;;;;;;;;;;20.50;60.60;;;;;;5059874;28;1931;-69
2023/12/13 08:17:31;;;;;;;;;;;20.40;60.80;;;;;;5060596;28;1432;-69
2023/12/13 08:19:56;;;;;;;;;;;20.40;61.10;;;;;;5059362;28;1470;-69
2023/12/13 08:22:22;;;;;;;;;;;20.40;61.20;;;;;;5090775;28;1402;-67
2023/12/13 08:24:47;;;;;;;;;;;20.40;61.10;;;;;;5058265;28;1964;-70
2023/12/13 08:27:13;;;;;;;;;;;20.40;61.30;;;;;;5059670;28;1984;-69
2023/12/13 08:29:38;;;;;;;;;;;20.50;61.30;;;;;;5059880;28;1373;-69
2023/12/13 08:32:04;;;;;;;;;;;20.50;61.30;;;;;;5059624;28;1200;-69
2023/12/13 08:34:29;;;;;;;;;;;20.40;61.40;;;;;;5076147;28;1963;-70
2023/12/13 08:36:55;;;;;;;;;;;20.50;61.40;;;;;;5059965;28;1063;-70
2023/12/13 08:39:21;;;;;;;;;;;20.50;61.50;;;;;;5059783;28;1347;-69
2023/12/13 08:41:47;;;;;;;;;;;20.40;61.50;;;;;;5059571;28;1557;-70
2023/12/13 08:44:12;;;;;;;;;;;20.40;61.60;;;;;;5060810;28;1254;-68
2023/12/13 08:46:38;;;;;;;;;;;20.40;61.70;;;;;;5091059;28;1490;-68
2023/12/13 08:49:04;;;;;;;;;;;20.40;61.60;;;;;;5059905;28;1315;-68
2023/12/13 08:51:29;;;;;;;;;;;20.40;61.70;;;;;;5061284;28;1328;-68
2023/12/13 08:53:55;;;;;;;;;;;20.40;61.70;;;;;;5060873;28;1972;-69
2023/12/13 08:56:21;;;;;;;;;;;20.40;61.80;;;;;;5090951;28;1282;-68
2023/12/13 08:58:46;;;;;;;;;;;20.40;61.80;;;;;;5088904;28;1445;-68
2023/12/13 09:01:12;;;;;;;;;;;20.40;62.00;;;;;;5090371;28;1393;-68
2023/12/13 09:03:40;;;;;;;;;;;20.40;62.00;;;;;;5060866;28;1298;-70
2023/12/13 09:06:06;;;;;;;;;;;20.40;62.00;;;;;;5090221;28;1524;-70
2023/12/13 09:08:32;;;;;;;;;;;20.40;62.00;;;;;;5059734;28;1330;-70
2023/12/13 09:10:57;;;;;;;;;;;20.40;62.00;;;;;;5059770;28;1097;-70
2023/12/13 09:13:22;;;;;;;;;;;20.40;62.10;;;;;;5058818;28;1909;-70
2023/12/13 09:15:48;;;;;;;;;;;20.40;62.00;;;;;;5057631;28;1336;-70
2023/12/13 09:18:13;;;;;;;;;;;20.40;62.00;;;;;;5058919;28;1382;-70
2023/12/13 09:20:40;;;;;;;;;;;20.40;62.00;;;;;;5059875;28;1318;-70
2023/12/13 09:23:06;;;;;;;;;;;20.40;62.00;;;;;;5056735;28;1433;-69
2023/12/13 09:25:31;;;;;;;;;;;20.40;62.10;;;;;;5059225;28;1493;-69
2023/12/13 09:27:57;;;;;;;;;;;20.40;62.20;;;;;;5058420;28;1394;-71
2023/12/13 09:30:23;;;;;;;;;;;20.40;62.20;;;;;;5043915;28;1332;-70
2023/12/13 09:32:48;;;;;;;;;;;20.40;62.50;;;;;;5060685;28;1898;-70
2023/12/13 09:35:14;;;;;;;;;;;20.40;62.40;;;;;;5057226;28;1234;-70
2023/12/13 09:37:41;;;;;;;;;;;20.40;62.70;;;;;;5059860;28;1560;-69
2023/12/13 09:40:09;;;;;;;;;;;20.40;62.70;;;;;;5057404;28;1328;-69
2023/12/13 09:42:34;;;;;;;;;;;20.40;62.70;;;;;;5089529;28;1517;-70
2023/12/13 09:45:00;;;;;;;;;;;20.40;62.60;;;;;;5057514;28;1235;-71
2023/12/13 09:47:26;;;;;;;;;;;20.30;62.60;;;;;;5056246;28;1507;-70
2023/12/13 09:49:52;;;;;;;;;;;20.40;62.70;;;;;;5059313;28;2013;-70
2023/12/13 09:52:19;;;;;;;;;;;20.40;62.70;;;;;;5056864;28;1463;-70
2023/12/13 09:54:45;;;;;;;;;;;20.40;62.70;;;;;;5057947;28;1902;-70
2023/12/13 09:57:11;;;;;;;;;;;20.40;62.70;;;;;;5089331;28;1393;-70
2023/12/13 09:59:38;;;;;;;;;;;20.40;62.60;;;;;;5059008;28;1509;-69
2023/12/13 10:02:07;;;;;;;;;;;20.40;62.60;;;;;;5058591;28;1264;-70
2023/12/13 10:04:32;;;;;;;;;;;20.40;62.70;;;;;;5078005;28;1413;-69
2023/12/13 10:06:58;;;;;;;;;;;20.30;62.70;;;;;;5058125;28;1194;-69
2023/12/13 10:09:29;;;;;;;;;;;20.40;62.80;;;;;;5059758;28;1599;-69
2023/12/13 10:11:58;;;;;;;;;;;20.40;62.80;;;;;;5059883;28;1658;-69
2023/12/13 10:14:24;;;;;;;;;;;20.30;62.90;;;;;;5090362;28;1917;-70
2023/12/13 10:16:49;;;;;;;;;;;20.30;63.10;;;;;;5090703;28;1738;-69
2023/12/13 10:19:16;;;;;;;;;;;20.30;63.00;;;;;;5058052;28;1300;-69
2023/12/13 10:21:41;;;;;;;;;;;20.30;63.10;;;;;;5059733;28;1229;-70
2023/12/13 10:24:07;;;;;;;;;;;20.30;63.40;;;;;;5058279;28;1945;-71
2023/12/13 10:26:33;;;;;;;;;;;20.30;63.40;;;;;;5090968;28;1492;-70
2023/12/13 10:28:59;;;;;;;;;;;20.30;63.50;;;;;;5059128;28;1377;-70
2023/12/13 10:31:25;;;;;;;;;;;20.30;63.50;;;;;;5059506;28;1314;-70
2023/12/13 10:33:51;;;;;;;;;;;20.30;63.60;;;;;;5057688;28;1977;-71
2023/12/13 10:36:16;;;;;;;;;;;20.30;63.70;;;;;;5054686;28;2037;-70
2023/12/13 10:38:44;;;;;;;;;;;20.30;63.70;;;;;;5057972;28;1585;-71
2023/12/13 10:41:09;;;;;;;;;;;20.40;63.80;;;;;;5093498;28;1299;-71
2023/12/13 10:43:34;;;;;;;;;;;20.40;63.70;;;;;;5095036;28;1314;-71
2023/12/13 10:46:00;;;;;;;;;;;20.40;63.70;;;;;;5064502;28;1478;-70
2023/12/13 10:48:35;;;;;;;;;;;20.30;63.70;;;;;;5059540;28;1360;-71
2023/12/13 10:51:02;;;;;;;;;;;20.30;63.60;;;;;;5074785;28;1293;-70
2023/12/13 10:53:28;;;;;;;;;;;20.30;64.00;;;;;;5086558;28;2025;-70
2023/12/13 10:55:54;;;;;;;;;;;20.30;63.90;;;;;;5079130;28;1527;-70
2023/12/13 10:58:19;;;;;;;;;;;20.40;63.60;;;;;;5061342;28;1391;-70
2023/12/13 11:00:45;;;;;;;;;;;20.40;63.60;;;;;;5061208;28;1340;-70
2023/12/13 11:03:13;;;;;;;;;;;20.40;63.60;;;;;;5091533;28;1288;-71
2023/12/13 11:05:38;;;;;;;;;;;20.30;63.50;;;;;;5058282;28;1397;-70
2023/12/13 11:08:17;;;;;;;;;;;20.40;63.60;;;;;;5095186;28;1358;-70
2023/12/13 11:11:01;;;;;;;;;;;20.30;63.60;;;;;;5064419;28;1568;-70
2023/12/13 11:13:26;;;;;;;;;;;20.30;63.90;;;;;;5058450;28;1914;-71
2023/12/13 11:15:52;;;;;;;;;;;20.30;63.80;;;;;;5059131;28;1897;-70
2023/12/13 11:18:17;;;;;;;;;;;20.30;64.30;;;;;;5063890;28;1358;-70
2023/12/13 11:20:44;;;;;;;;;;;20.30;64.30;;;;;;5060453;28;1283;-70
2023/12/13 11:23:10;;;;;;;;;;;20.30;64.70;;;;;;5076254;28;1487;-70
2023/12/13 11:25:36;;;;;;;;;;;20.40;64.90;;;;;;5060152;28;1340;-70
2023/12/13 11:28:02;;;;;;;;;;;20.40;65.10;;;;;;5092711;28;1616;-70
2023/12/13 11:30:27;;;;;;;;;;;20.40;65.20;;;;;;5091989;28;1299;-70
2023/12/13 11:32:53;;;;;;;;;;;20.30;65.30;;;;;;5058023;28;1970;-70
2023/12/13 11:35:19;;;;;;;;;;;20.40;66.20;;;;;;5091601;28;1466;-70
2023/12/13 11:37:51;;;;;;;;;;;20.40;65.40;;;;;;5056519;28;1517;-70
2023/12/13 11:40:17;;;;;;;;;;;20.40;65.50;;;;;;5060309;28;1271;-70
2023/12/13 11:42:42;;;;;;;;;;;20.40;65.70;;;;;;5091351;28;1525;-71
2023/12/13 11:45:08;;;;;;;;;;;20.40;65.80;;;;;;5060043;28;1220;-70
2023/12/13 11:47:33;;;;;;;;;;;20.40;65.80;;;;;;5060243;28;1293;-69
2023/12/13 11:49:59;;;;;;;;;;;20.40;66.00;;;;;;5058120;28;1277;-70
2023/12/13 11:52:25;;;;;;;;;;;20.40;66.20;;;;;;5059733;28;1353;-70
2023/12/13 11:54:50;;;;;;;;;;;20.40;65.90;;;;;;5059817;28;1894;-69
2023/12/13 11:57:18;;;;;;;;;;;20.40;66.00;;;;;;5059254;28;1552;-69
2023/12/13 11:59:43;;;;;;;;;;;20.50;65.40;;;;;;5058022;28;1379;-69
2023/12/13 12:02:16;;;;;;;;;;;20.50;65.30;;;;;;5092495;28;1585;-70
2023/12/13 12:04:42;;;;;;;;;;;20.60;65.00;;;;;;5059654;28;1335;-69
2023/12/13 12:07:12;;;;;;;;;;;20.60;64.70;;;;;;5059383;28;1322;-69
2023/12/13 12:09:37;;;;;;;;;;;20.70;64.50;;;;;;5059013;28;1497;-70
2023/12/13 12:12:03;;;;;;;;;;;20.70;64.30;;;;;;5061331;28;1448;-70
2023/12/13 12:14:28;;;;;;;;;;;20.70;64.20;;;;;;5089717;28;1906;-70
2023/12/13 12:16:54;;;;;;;;;;;20.70;64.60;;;;;;5096764;28;1413;-70
2023/12/13 12:19:19;;;;;;;;;;;20.60;64.60;;;;;;5089820;28;1472;-70
2023/12/13 12:21:45;;;;;;;;;;;20.60;64.70;;;;;;5060304;28;1673;-70
2023/12/13 12:24:10;;;;;;;;;;;20.60;64.60;;;;;;5057209;28;1492;-69
2023/12/13 12:26:36;;;;;;;;;;;20.60;64.60;;;;;;5059238;28;1237;-69
2023/12/13 12:29:01;;;;;;;;;;;20.60;64.50;;;;;;5094103;28;1417;-69
2023/12/13 12:31:27;;;;;;;;;;;20.60;64.70;;;;;;5059458;28;1383;-70
2023/12/13 12:33:53;;;;;;;;;;;20.60;64.60;;;;;;5059512;28;1906;-69
2023/12/13 12:36:19;;;;;;;;;;;20.60;64.40;;;;;;5059117;28;1351;-69
2023/12/13 12:38:47;;;;;;;;;;;20.60;64.40;;;;;;5057236;28;1394;-70
2023/12/13 12:41:13;;;;;;;;;;;20.60;64.10;;;;;;5058180;28;1268;-69
2023/12/13 12:43:39;;;;;;;;;;;20.60;64.10;;;;;;5061520;28;1316;-70
2023/12/13 12:46:05;;;;;;;;;;;20.60;63.90;;;;;;5059348;28;1343;-70
2023/12/13 12:48:30;;;;;;;;;;;20.60;64.00;;;;;;5061326;28;1283;-70
2023/12/13 12:50:56;;;;;;;;;;;20.60;63.90;;;;;;5092329;28;1347;-70
2023/12/13 12:53:21;;;;;;;;;;;20.60;63.70;;;;;;5089467;28;1905;-70
2023/12/13 12:55:47;;;;;;;;;;;20.70;63.70;;;;;;5056761;28;1111;-69
2023/12/13 12:58:12;;;;;;;;;;;20.60;63.60;;;;;;5057148;28;1335;-70
2023/12/13 13:00:38;;;;;;;;;;;20.60;63.70;;;;;;5058871;28;2015;-69
2023/12/13 13:03:06;;;;;;;;;;;20.60;63.50;;;;;;5057644;28;2051;-69
2023/12/13 13:05:35;;;;;;;;;;;20.60;63.90;;;;;;5058568;28;1518;-70
2023/12/13 13:08:00;;;;;;;;;;;20.60;60.30;;;;;;5057809;28;1305;-69
2023/12/13 13:10:26;;;;;;;;;;;20.50;58.20;;;;;;5077606;28;2183;-70
2023/12/13 13:12:51;;;;;;;;;;;20.40;57.20;;;;;;5057964;28;1891;-69
2023/12/13 13:15:17;;;;;;;;;;;20.30;56.90;;;;;;5073161;28;1340;-70
2023/12/13 13:17:42;;;;;;;;;;;20.30;56.40;;;;;;5060767;28;1779;-70
2023/12/13 13:20:15;;;;;;;;;;;20.20;56.20;;;;;;5060812;28;1419;-69
2023/12/13 13:22:40;;;;;;;;;;;20.10;55.90;;;;;;5060117;28;1400;-70
2023/12/13 13:25:06;;;;;;;;;;;20.10;55.70;;;;;;5057660;28;1434;-70
2023/12/13 13:27:32;;;;;;;;;;;20.00;55.50;;;;;;5060010;28;1481;-70
2023/12/13 13:29:57;;;;;;;;;;;20.00;55.40;;;;;;5092685;28;1287;-71
2023/12/13 13:32:23;;;;;;;;;;;19.90;55.20;;;;;;5058739;28;1162;-70
2023/12/13 13:34:48;;;;;;;;;;;19.90;55.10;;;;;;5060530;28;1945;-71
2023/12/13 13:37:14;;;;;;;;;;;19.80;55.10;;;;;;5087424;28;1685;-71
2023/12/13 13:39:40;;;;;;;;;;;19.80;54.90;;;;;;5055092;28;1833;-71
2023/12/13 13:42:06;;;;;;;;;;;19.70;54.70;;;;;;5058170;28;1427;-70
2023/12/13 13:44:31;;;;;;;;;;;19.70;54.70;;;;;;5057088;28;1531;-70
2023/12/13 13:46:57;;;;;;;;;;;19.70;54.50;;;;;;5055615;28;1674;-69
2023/12/13 13:49:22;;;;;;;;;;;19.70;54.40;;;;;;5089173;28;1391;-70
2023/12/13 13:51:48;;;;;;;;;;;19.70;54.60;;;;;;5060003;28;1251;-70
2023/12/13 13:54:15;;;;;;;;;;;19.60;54.30;;;;;;5086976;28;1914;-70
2023/12/13 13:56:40;;;;;;;;;;;19.60;54.20;;;;;;5058055;28;1454;-70
2023/12/13 13:59:05;;;;;;;;;;;19.60;54.30;;;;;;5054834;28;1416;-70
2023/12/13 14:01:31;;;;;;;;;;;19.60;54.20;;;;;;5054821;28;1172;-69
2023/12/13 14:03:59;;;;;;;;;;;19.50;54.20;;;;;;5055497;28;1402;-70
2023/12/13 14:06:25;;;;;;;;;;;19.50;54.20;;;;;;5056091;28;1345;-70
2023/12/13 14:08:51;;;;;;;;;;;19.50;54.10;;;;;;5061571;28;1472;-71
2023/12/13 14:11:16;;;;;;;;;;;19.50;54.10;;;;;;5057612;28;1407;-71
2023/12/13 14:13:42;;;;;;;;;;;19.50;54.20;;;;;;5054820;28;1973;-69
2023/12/13 14:16:08;;;;;;;;;;;19.50;54.10;;;;;;5060514;28;1494;-70
2023/12/13 14:18:33;;;;;;;;;;;19.50;54.00;;;;;;5059510;28;1505;-70
2023/12/13 14:20:58;;;;;;;;;;;19.40;54.00;;;;;;5054655;28;1781;-69
2023/12/13 14:23:24;;;;;;;;;;;19.40;54.10;;;;;;5056167;28;1099;-69